sensor_id;sensor_type;location;lat;lon;timestamp;pressure;altitude;pressure_sealevel;temperature;humidity
51468;BME280;37545;45.302;-122.946;2023-03-14T00:01:29;100425.50;;;6.41;100.00
51468;BME280;37545;45.302;-122.946;2023-03-14T00:03:57;100419.06;;;6.30;100.00
51468;BME280;37545;45.302;-122.946;2023-03-14T00:06:26;100432.97;;;6.35;100.00
51468;BME280;37545;45.302;-122.946;2023-03-14T00:08:55;100434.88;;;6.39;100.00
51468;BME280;37545;45.302;-122.946;2023-03-14T00:11:23;100447.56;;;6.36;100.00
51468;BME280;37545;45.302;-122.946;2023-03-14T00:13:53;100454.09;;;6.28;100.00
51468;BME280;37545;45.302;-122.946;2023-03-14T00:16:23;100454.88;;;6.27;100.00
51468;BME280;37545;45.302;-122.946;2023-03-14T00:18:51;100463.91;;;6.17;100.00
51468;BME280;37545;45.302;-122.946;2023-03-14T00:21:20;100460.59;;;6.20;100.00
51468;BME280;37545;45.302;-122.946;2023-03-14T00:23:49;100458.28;;;6.26;100.00
51468;BME280;37545;45.302;-122.946;2023-03-14T00:26:19;100459.25;;;6.28;100.00
51468;BME280;37545;45.302;-122.946;2023-03-14T00:28:51;100466.94;;;6.28;100.00
51468;BME280;37545;45.302;-122.946;2023-03-14T00:31:22;100463.28;;;6.23;100.00
51468;BME280;37545;45.302;-122.946;2023-03-14T00:33:53;100468.56;;;6.26;100.00
51468;BME280;37545;45.302;-122.946;2023-03-14T00:36:22;100469.72;;;6.33;100.00
51468;BME280;37545;45.302;-122.946;2023-03-14T00:38:51;100462.03;;;6.34;100.00
51468;BME280;37545;45.302;-122.946;2023-03-14T00:41:22;100469.34;;;6.44;100.00
51468;BME280;37545;45.302;-122.946;2023-03-14T00:43:51;100485.75;;;6.48;100.00
51468;BME280;37545;45.302;-122.946;2023-03-14T00:46:20;100484.59;;;6.41;100.00
51468;BME280;37545;45.302;-122.946;2023-03-14T00:48:50;100483.72;;;6.41;100.00
51468;BME280;37545;45.302;-122.946;2023-03-14T00:51:18;100488.00;;;6.40;100.00
51468;BME280;37545;45.302;-122.946;2023-03-14T00:53:47;100485.25;;;6.36;100.00
51468;BME280;37545;45.302;-122.946;2023-03-14T00:56:16;100480.19;;;6.37;100.00
51468;BME280;37545;45.302;-122.946;2023-03-14T00:58:45;100484.59;;;6.41;100.00
51468;BME280;37545;45.302;-122.946;2023-03-14T01:01:15;100476.59;;;6.34;100.00
51468;BME280;37545;45.302;-122.946;2023-03-14T01:03:45;100470.69;;;6.36;100.00
51468;BME280;37545;45.302;-122.946;2023-03-14T01:06:16;100468.00;;;6.33;100.00
51468;BME280;37545;45.302;-122.946;2023-03-14T01:08:45;100479.47;;;6.41;100.00
51468;BME280;37545;45.302;-122.946;2023-03-14T01:11:15;100478.97;;;6.50;100.00
51468;BME280;37545;45.302;-122.946;2023-03-14T01:13:45;100481.06;;;6.59;100.00
51468;BME280;37545;45.302;-122.946;2023-03-14T01:16:14;100480.09;;;6.57;100.00
51468;BME280;37545;45.302;-122.946;2023-03-14T01:18:43;100480.44;;;6.64;100.00
51468;BME280;37545;45.302;-122.946;2023-03-14T01:21:15;100474.91;;;6.76;100.00
51468;BME280;37545;45.302;-122.946;2023-03-14T01:23:45;100480.28;;;6.82;100.00
51468;BME280;37545;45.302;-122.946;2023-03-14T01:26:16;100482.16;;;6.86;100.00
51468;BME280;37545;45.302;-122.946;2023-03-14T01:28:47;100495.03;;;6.86;100.00
51468;BME280;37545;45.302;-122.946;2023-03-14T01:31:16;100501.69;;;6.81;100.00
51468;BME280;37545;45.302;-122.946;2023-03-14T01:33:45;100500.81;;;6.81;100.00
51468;BME280;37545;45.302;-122.946;2023-03-14T01:36:16;100498.94;;;6.77;100.00
51468;BME280;37545;45.302;-122.946;2023-03-14T01:38:45;100508.16;;;6.71;100.00
51468;BME280;37545;45.302;-122.946;2023-03-14T01:41:15;100500.25;;;6.67;100.00
51468;BME280;37545;45.302;-122.946;2023-03-14T01:43:45;100500.75;;;6.58;100.00
51468;BME280;37545;45.302;-122.946;2023-03-14T01:46:20;100510.72;;;6.50;100.00
51468;BME280;37545;45.302;-122.946;2023-03-14T01:48:55;100508.69;;;6.43;100.00
51468;BME280;37545;45.302;-122.946;2023-03-14T01:51:30;100514.38;;;6.36;100.00
51468;BME280;37545;45.302;-122.946;2023-03-14T01:54:05;100512.75;;;6.38;100.00
51468;BME280;37545;45.302;-122.946;2023-03-14T01:56:35;100511.69;;;6.33;100.00
51468;BME280;37545;45.302;-122.946;2023-03-14T01:59:07;100514.53;;;6.20;100.00
51468;BME280;37545;45.302;-122.946;2023-03-14T02:01:37;100506.72;;;6.17;100.00
51468;BME280;37545;45.302;-122.946;2023-03-14T02:04:10;100513.34;;;6.12;100.00
51468;BME280;37545;45.302;-122.946;2023-03-14T02:06:47;100512.13;;;6.03;100.00
51468;BME280;37545;45.302;-122.946;2023-03-14T02:09:17;100515.25;;;5.96;100.00
51468;BME280;37545;45.302;-122.946;2023-03-14T02:11:46;100523.16;;;5.83;100.00
51468;BME280;37545;45.302;-122.946;2023-03-14T02:14:25;100528.09;;;5.78;100.00
51468;BME280;37545;45.302;-122.946;2023-03-14T02:16:57;100513.16;;;5.70;100.00
51468;BME280;37545;45.302;-122.946;2023-03-14T02:19:37;100517.50;;;5.71;100.00
51468;BME280;37545;45.302;-122.946;2023-03-14T02:22:14;100513.81;;;5.65;100.00
51468;BME280;37545;45.302;-122.946;2023-03-14T02:24:48;100515.19;;;5.57;100.00
51468;BME280;37545;45.302;-122.946;2023-03-14T02:27:20;100520.31;;;5.57;100.00
51468;BME280;37545;45.302;-122.946;2023-03-14T02:29:51;100532.06;;;5.52;100.00
51468;BME280;37545;45.302;-122.946;2023-03-14T02:32:21;100533.66;;;5.50;100.00
51468;BME280;37545;45.302;-122.946;2023-03-14T02:34:54;100540.25;;;5.45;100.00
51468;BME280;37545;45.302;-122.946;2023-03-14T02:37:27;100543.50;;;5.41;100.00
51468;BME280;37545;45.302;-122.946;2023-03-14T02:39:58;100542.56;;;5.39;100.00
51468;BME280;37545;45.302;-122.946;2023-03-14T02:42:28;100546.06;;;5.41;100.00
51468;BME280;37545;45.302;-122.946;2023-03-14T02:47:54;100563.66;;;5.33;100.00
51468;BME280;37545;45.302;-122.946;2023-03-14T02:50:25;100563.75;;;5.35;100.00
51468;BME280;37545;45.302;-122.946;2023-03-14T02:52:56;100573.19;;;5.36;100.00
51468;BME280;37545;45.302;-122.946;2023-03-14T02:55:25;100577.53;;;5.37;100.00
51468;BME280;37545;45.302;-122.946;2023-03-14T02:57:55;100570.63;;;5.36;100.00
51468;BME280;37545;45.302;-122.946;2023-03-14T03:00:24;100580.75;;;5.33;100.00
51468;BME280;37545;45.302;-122.946;2023-03-14T03:02:53;100590.25;;;5.35;100.00
51468;BME280;37545;45.302;-122.946;2023-03-14T03:05:22;100589.31;;;5.33;100.00
51468;BME280;37545;45.302;-122.946;2023-03-14T03:07:50;100599.53;;;5.32;100.00
51468;BME280;37545;45.302;-122.946;2023-03-14T03:10:19;100600.31;;;5.31;100.00
51468;BME280;37545;45.302;-122.946;2023-03-14T03:12:48;100607.03;;;5.29;100.00
51468;BME280;37545;45.302;-122.946;2023-03-14T03:15:18;100611.38;;;5.30;100.00
51468;BME280;37545;45.302;-122.946;2023-03-14T03:17:47;100619.13;;;5.31;100.00
51468;BME280;37545;45.302;-122.946;2023-03-14T03:20:15;100618.25;;;5.31;100.00
51468;BME280;37545;45.302;-122.946;2023-03-14T03:22:44;100623.41;;;5.31;100.00
51468;BME280;37545;45.302;-122.946;2023-03-14T03:25:13;100623.47;;;5.32;100.00
51468;BME280;37545;45.302;-122.946;2023-03-14T03:27:41;100627.78;;;5.33;100.00
51468;BME280;37545;45.302;-122.946;2023-03-14T03:30:10;100633.84;;;5.34;100.00
51468;BME280;37545;45.302;-122.946;2023-03-14T03:32:41;100636.44;;;5.35;100.00
51468;BME280;37545;45.302;-122.946;2023-03-14T03:35:10;100639.09;;;5.37;100.00
51468;BME280;37545;45.302;-122.946;2023-03-14T03:37:39;100641.75;;;5.38;100.00
51468;BME280;37545;45.302;-122.946;2023-03-14T03:40:09;100648.63;;;5.39;100.00
51468;BME280;37545;45.302;-122.946;2023-03-14T03:42:37;100653.03;;;5.42;100.00
51468;BME280;37545;45.302;-122.946;2023-03-14T03:45:07;100655.66;;;5.43;100.00
51468;BME280;37545;45.302;-122.946;2023-03-14T03:47:35;100662.63;;;5.46;100.00
51468;BME280;37545;45.302;-122.946;2023-03-14T03:50:07;100662.56;;;5.44;100.00
51468;BME280;37545;45.302;-122.946;2023-03-14T03:52:35;100666.66;;;5.41;100.00
51468;BME280;37545;45.302;-122.946;2023-03-14T03:55:04;100675.88;;;5.37;100.00
51468;BME280;37545;45.302;-122.946;2023-03-14T03:57:33;100679.34;;;5.38;100.00
51468;BME280;37545;45.302;-122.946;2023-03-14T04:00:02;100684.47;;;5.38;100.00
51468;BME280;37545;45.302;-122.946;2023-03-14T04:02:32;100680.16;;;5.37;100.00
51468;BME280;37545;45.302;-122.946;2023-03-14T04:05:00;100678.47;;;5.37;100.00
51468;BME280;37545;45.302;-122.946;2023-03-14T04:07:31;100685.28;;;5.37;100.00
51468;BME280;37545;45.302;-122.946;2023-03-14T04:10:00;100678.38;;;5.36;100.00
51468;BME280;37545;45.302;-122.946;2023-03-14T04:12:35;100689.31;;;5.32;100.00
51468;BME280;37545;45.302;-122.946;2023-03-14T04:15:04;100690.91;;;5.30;100.00
51468;BME280;37545;45.302;-122.946;2023-03-14T04:17:32;100699.41;;;5.29;100.00
51468;BME280;37545;45.302;-122.946;2023-03-14T04:20:01;100701.00;;;5.27;100.00
51468;BME280;37545;45.302;-122.946;2023-03-14T04:22:33;100709.59;;;5.27;100.00
51468;BME280;37545;45.302;-122.946;2023-03-14T04:25:01;100706.63;;;5.19;100.00
51468;BME280;37545;45.302;-122.946;2023-03-14T04:27:30;100710.75;;;5.16;100.00
51468;BME280;37545;45.302;-122.946;2023-03-14T04:29:58;100714.09;;;5.15;100.00
51468;BME280;37545;45.302;-122.946;2023-03-14T04:32:26;100714.69;;;5.09;100.00
51468;BME280;37545;45.302;-122.946;2023-03-14T04:34:55;100710.19;;;5.05;100.00
51468;BME280;37545;45.302;-122.946;2023-03-14T04:37:23;100728.88;;;5.02;100.00
51468;BME280;37545;45.302;-122.946;2023-03-14T04:39:54;100725.34;;;5.00;100.00
51468;BME280;37545;45.302;-122.946;2023-03-14T04:42:22;100729.44;;;4.97;100.00
51468;BME280;37545;45.302;-122.946;2023-03-14T04:44:51;100731.06;;;4.95;100.00
51468;BME280;37545;45.302;-122.946;2023-03-14T04:47:19;100728.41;;;4.93;100.00
51468;BME280;37545;45.302;-122.946;2023-03-14T04:49:48;100736.88;;;4.92;100.00
51468;BME280;37545;45.302;-122.946;2023-03-14T04:52:19;100739.38;;;4.91;100.00
51468;BME280;37545;45.302;-122.946;2023-03-14T04:54:48;100745.31;;;4.90;100.00
51468;BME280;37545;45.302;-122.946;2023-03-14T04:57:18;100745.16;;;4.87;100.00
51468;BME280;37545;45.302;-122.946;2023-03-14T04:59:46;100751.16;;;4.87;100.00
51468;BME280;37545;45.302;-122.946;2023-03-14T05:02:15;100751.09;;;4.86;100.00
51468;BME280;37545;45.302;-122.946;2023-03-14T05:04:43;100758.78;;;4.86;100.00
51468;BME280;37545;45.302;-122.946;2023-03-14T05:07:12;100763.91;;;4.86;100.00
51468;BME280;37545;45.302;-122.946;2023-03-14T05:09:40;100764.84;;;4.88;100.00
51468;BME280;37545;45.302;-122.946;2023-03-14T05:12:09;100763.25;;;4.90;100.00
51468;BME280;37545;45.302;-122.946;2023-03-14T05:14:39;100769.34;;;4.92;100.00
51468;BME280;37545;45.302;-122.946;2023-03-14T05:17:08;100771.13;;;4.93;100.00
51468;BME280;37545;45.302;-122.946;2023-03-14T05:19:36;100769.44;;;4.93;100.00
51468;BME280;37545;45.302;-122.946;2023-03-14T05:22:05;100775.44;;;4.94;100.00
51468;BME280;37545;45.302;-122.946;2023-03-14T05:24:33;100775.44;;;4.94;100.00
51468;BME280;37545;45.302;-122.946;2023-03-14T05:27:02;100778.81;;;4.93;100.00
51468;BME280;37545;45.302;-122.946;2023-03-14T05:29:31;100775.59;;;4.97;100.00
51468;BME280;37545;45.302;-122.946;2023-03-14T05:32:01;100777.38;;;4.98;100.00
51468;BME280;37545;45.302;-122.946;2023-03-14T05:34:29;100783.38;;;4.98;100.00
51468;BME280;37545;45.302;-122.946;2023-03-14T05:36:58;100784.44;;;5.02;100.00
51468;BME280;37545;45.302;-122.946;2023-03-14T05:39:26;100787.94;;;5.04;100.00
51468;BME280;37545;45.302;-122.946;2023-03-14T05:41:55;100782.09;;;5.07;100.00
51468;BME280;37545;45.302;-122.946;2023-03-14T05:44:24;100783.13;;;5.10;100.00
51468;BME280;37545;45.302;-122.946;2023-03-14T05:46:52;100774.63;;;5.11;100.00
51468;BME280;37545;45.302;-122.946;2023-03-14T05:49:22;100786.78;;;5.15;100.00
51468;BME280;37545;45.302;-122.946;2023-03-14T05:51:52;100780.16;;;5.19;100.00
51468;BME280;37545;45.302;-122.946;2023-03-14T05:54:20;100775.84;;;5.18;100.00
51468;BME280;37545;45.302;-122.946;2023-03-14T05:56:49;100788.72;;;5.19;100.00
51468;BME280;37545;45.302;-122.946;2023-03-14T05:59:17;100792.25;;;5.21;100.00
51468;BME280;37545;45.302;-122.946;2023-03-14T06:01:46;100781.66;;;5.15;100.00
51468;BME280;37545;45.302;-122.946;2023-03-14T06:04:14;100784.22;;;5.15;100.00
51468;BME280;37545;45.302;-122.946;2023-03-14T06:06:44;100786.75;;;5.14;100.00
51468;BME280;37545;45.302;-122.946;2023-03-14T06:09:13;100781.53;;;5.12;100.00
51468;BME280;37545;45.302;-122.946;2023-03-14T06:11:42;100783.13;;;5.10;100.00
51468;BME280;37545;45.302;-122.946;2023-03-14T06:14:10;100786.56;;;5.11;100.00
51468;BME280;37545;45.302;-122.946;2023-03-14T06:16:39;100790.75;;;5.09;100.00
51468;BME280;37545;45.302;-122.946;2023-03-14T06:19:14;100795.88;;;5.09;100.00
51468;BME280;37545;45.302;-122.946;2023-03-14T06:21:44;100795.88;;;5.09;100.00
51468;BME280;37545;45.302;-122.946;2023-03-14T06:24:13;100796.56;;;5.06;100.00
51468;BME280;37545;45.302;-122.946;2023-03-14T06:26:41;100797.25;;;5.02;100.00
51468;BME280;37545;45.302;-122.946;2023-03-14T06:29:10;100801.41;;;5.00;100.00
51468;BME280;37545;45.302;-122.946;2023-03-14T06:31:39;100794.81;;;5.05;100.00
51468;BME280;37545;45.302;-122.946;2023-03-14T06:34:08;100794.09;;;5.08;100.00
51468;BME280;37545;45.302;-122.946;2023-03-14T06:36:36;100802.66;;;5.08;100.00
51468;BME280;37545;45.302;-122.946;2023-03-14T06:39:07;100799.63;;;4.99;100.00
51468;BME280;37545;45.302;-122.946;2023-03-14T06:41:35;100807.16;;;4.96;100.00
51468;BME280;37545;45.302;-122.946;2023-03-14T06:44:04;100803.53;;;4.92;100.00
51468;BME280;37545;45.302;-122.946;2023-03-14T06:46:46;100812.06;;;4.91;100.00
51468;BME280;37545;45.302;-122.946;2023-03-14T06:49:14;100818.06;;;4.92;100.00
51468;BME280;37545;45.302;-122.946;2023-03-14T06:51:43;100820.38;;;4.87;100.00
51468;BME280;37545;45.302;-122.946;2023-03-14T06:54:13;100818.53;;;4.85;100.00
51468;BME280;37545;45.302;-122.946;2023-03-14T06:56:42;100815.09;;;4.84;100.00
51468;BME280;37545;45.302;-122.946;2023-03-14T06:59:10;100813.97;;;4.79;100.00
51468;BME280;37545;45.302;-122.946;2023-03-14T07:01:39;100824.13;;;4.77;100.00
51468;BME280;37545;45.302;-122.946;2023-03-14T07:04:09;100820.59;;;4.75;100.00
51468;BME280;37545;45.302;-122.946;2023-03-14T07:06:37;100820.50;;;4.74;100.00
51468;BME280;37545;45.302;-122.946;2023-03-14T07:09:13;100823.06;;;4.74;100.00
51468;BME280;37545;45.302;-122.946;2023-03-14T07:11:43;100820.50;;;4.74;100.00
51468;BME280;37545;45.302;-122.946;2023-03-14T07:14:11;100823.03;;;4.72;100.00
51468;BME280;37545;45.302;-122.946;2023-03-14T07:16:40;100820.25;;;4.69;100.00
51468;BME280;37545;45.302;-122.946;2023-03-14T07:19:08;100827.97;;;4.69;100.00
51468;BME280;37545;45.302;-122.946;2023-03-14T07:21:37;100833.03;;;4.68;100.00
51468;BME280;37545;45.302;-122.946;2023-03-14T07:24:05;100829.25;;;4.61;100.00
51468;BME280;37545;45.302;-122.946;2023-03-14T07:26:35;100824.19;;;4.62;100.00
51468;BME280;37545;45.302;-122.946;2023-03-14T07:29:04;100831.19;;;4.65;100.00
51468;BME280;37545;45.302;-122.946;2023-03-14T07:31:32;100820.13;;;4.66;100.00
51468;BME280;37545;45.302;-122.946;2023-03-14T07:34:01;100818.53;;;4.68;100.00
51468;BME280;37545;45.302;-122.946;2023-03-14T07:36:30;100817.69;;;4.69;100.00
51468;BME280;37545;45.302;-122.946;2023-03-14T07:38:58;100819.28;;;4.67;100.00
51468;BME280;37545;45.302;-122.946;2023-03-14T07:41:27;100810.00;;;4.69;100.00
51468;BME280;37545;45.302;-122.946;2023-03-14T07:43:57;100806.66;;;4.70;100.00
51468;BME280;37545;45.302;-122.946;2023-03-14T07:46:25;100808.09;;;4.65;100.00
51468;BME280;37545;45.302;-122.946;2023-03-14T07:48:54;100820.94;;;4.65;100.00
51468;BME280;37545;45.302;-122.946;2023-03-14T07:51:22;100806.31;;;4.64;100.00
51468;BME280;37545;45.302;-122.946;2023-03-14T07:53:51;100802.97;;;4.65;100.00
51468;BME280;37545;45.302;-122.946;2023-03-14T07:56:19;100802.97;;;4.65;100.00
51468;BME280;37545;45.302;-122.946;2023-03-14T07:58:48;100790.94;;;4.64;100.00
51468;BME280;37545;45.302;-122.946;2023-03-14T08:01:18;100795.09;;;4.62;100.00
51468;BME280;37545;45.302;-122.946;2023-03-14T08:03:46;100798.28;;;4.58;100.00
51468;BME280;37545;45.302;-122.946;2023-03-14T08:06:15;100806.19;;;4.61;100.00
51468;BME280;37545;45.302;-122.946;2023-03-14T08:08:43;100808.81;;;4.62;100.00
51468;BME280;37545;45.302;-122.946;2023-03-14T08:11:12;100805.34;;;4.62;100.00
51468;BME280;37545;45.302;-122.946;2023-03-14T08:13:40;100809.72;;;4.63;100.00
51468;BME280;37545;45.302;-122.946;2023-03-14T08:16:18;100807.94;;;4.62;100.00
51468;BME280;37545;45.302;-122.946;2023-03-14T08:18:48;100809.72;;;4.63;100.00
51468;BME280;37545;45.302;-122.946;2023-03-14T08:21:16;100808.00;;;4.64;100.00
51468;BME280;37545;45.302;-122.946;2023-03-14T08:23:45;100791.03;;;4.49;100.00
51468;BME280;37545;45.302;-122.946;2023-03-14T08:26:13;100799.28;;;4.60;100.00
51468;BME280;37545;45.302;-122.946;2023-03-14T08:28:42;100803.59;;;4.61;100.00
51468;BME280;37545;45.302;-122.946;2023-03-14T08:31:10;100805.56;;;4.65;100.00
51468;BME280;37545;45.302;-122.946;2023-03-14T08:33:40;100805.78;;;4.70;100.00
51468;BME280;37545;45.302;-122.946;2023-03-14T08:36:10;100807.69;;;4.74;100.00
51468;BME280;37545;45.302;-122.946;2023-03-14T08:38:38;100818.13;;;4.77;100.00
51468;BME280;37545;45.302;-122.946;2023-03-14T08:41:09;100815.47;;;4.75;100.00
51468;BME280;37545;45.302;-122.946;2023-03-14T08:43:37;100818.13;;;4.77;100.00
51468;BME280;37545;45.302;-122.946;2023-03-14T08:46:06;100822.59;;;4.81;100.00
51468;BME280;37545;45.302;-122.946;2023-03-14T08:48:35;100824.47;;;4.83;100.00
51468;BME280;37545;45.302;-122.946;2023-03-14T08:51:09;100823.75;;;4.86;100.00
51468;BME280;37545;45.302;-122.946;2023-03-14T08:53:39;100826.22;;;4.85;100.00
51468;BME280;37545;45.302;-122.946;2023-03-14T08:56:08;100829.84;;;4.88;100.00
51468;BME280;37545;45.302;-122.946;2023-03-14T08:58:37;100831.69;;;4.91;100.00
51468;BME280;37545;45.302;-122.946;2023-03-14T09:01:09;100833.53;;;4.93;100.00
51468;BME280;37545;45.302;-122.946;2023-03-14T09:03:38;100831.94;;;4.95;100.00
51468;BME280;37545;45.302;-122.946;2023-03-14T09:06:09;100832.00;;;4.97;100.00
51468;BME280;37545;45.302;-122.946;2023-03-14T09:08:38;100837.13;;;4.97;100.00
51468;BME280;37545;45.302;-122.946;2023-03-14T09:11:08;100843.88;;;4.95;100.00
51468;BME280;37545;45.302;-122.946;2023-03-14T09:13:36;100843.22;;;4.99;100.00
51468;BME280;37545;45.302;-122.946;2023-03-14T09:16:06;100840.75;;;5.00;100.00
51468;BME280;37545;45.302;-122.946;2023-03-14T09:18:35;100837.31;;;5.00;100.00
51468;BME280;37545;45.302;-122.946;2023-03-14T09:21:04;100844.13;;;4.99;100.00
51468;BME280;37545;45.302;-122.946;2023-03-14T09:23:34;100851.72;;;4.98;100.00
51468;BME280;37545;45.302;-122.946;2023-03-14T09:26:02;100846.69;;;4.99;100.00
51468;BME280;37545;45.302;-122.946;2023-03-14T09:28:31;100837.47;;;5.03;100.00
51468;BME280;37545;45.302;-122.946;2023-03-14T09:31:06;100841.16;;;5.08;100.00
51468;BME280;37545;45.302;-122.946;2023-03-14T09:33:35;100833.63;;;5.11;100.00
51468;BME280;37545;45.302;-122.946;2023-03-14T09:36:04;100835.53;;;5.15;100.00
51468;BME280;37545;45.302;-122.946;2023-03-14T09:38:35;100835.38;;;5.12;100.00
51468;BME280;37545;45.302;-122.946;2023-03-14T09:41:13;100830.25;;;5.12;100.00
51468;BME280;37545;45.302;-122.946;2023-03-14T09:43:44;100843.16;;;5.14;100.00
51468;BME280;37545;45.302;-122.946;2023-03-14T09:46:14;100848.53;;;5.18;100.00
51468;BME280;37545;45.302;-122.946;2023-03-14T09:48:43;100853.72;;;5.20;100.00
51468;BME280;37545;45.302;-122.946;2023-03-14T09:51:14;100847.00;;;5.22;100.00
51468;BME280;37545;45.302;-122.946;2023-03-14T09:53:45;100842.84;;;5.24;100.00
51468;BME280;37545;45.302;-122.946;2023-03-14T09:56:17;100851.50;;;5.26;100.00
51468;BME280;37545;45.302;-122.946;2023-03-14T09:58:51;100849.97;;;5.30;100.00
51468;BME280;37545;45.302;-122.946;2023-03-14T10:01:24;100847.47;;;5.31;100.00
51468;BME280;37545;45.302;-122.946;2023-03-14T10:03:55;100840.69;;;5.32;100.00
51468;BME280;37545;45.302;-122.946;2023-03-14T10:06:27;100836.44;;;5.32;100.00
51468;BME280;37545;45.302;-122.946;2023-03-14T10:08:57;100833.13;;;5.35;100.00
51468;BME280;37545;45.302;-122.946;2023-03-14T10:11:26;100831.44;;;5.35;100.00
51468;BME280;37545;45.302;-122.946;2023-03-14T10:14:06;100827.13;;;5.34;100.00
51468;BME280;37545;45.302;-122.946;2023-03-14T10:16:36;100821.28;;;5.37;100.00
51468;BME280;37545;45.302;-122.946;2023-03-14T10:19:06;100817.88;;;5.38;100.00
51468;BME280;37545;45.302;-122.946;2023-03-14T10:21:39;100820.53;;;5.39;100.00
51468;BME280;37545;45.302;-122.946;2023-03-14T10:24:20;100811.09;;;5.38;100.00
51468;BME280;37545;45.302;-122.946;2023-03-14T10:26:49;100806.84;;;5.39;100.00
51468;BME280;37545;45.302;-122.946;2023-03-14T10:29:19;100800.88;;;5.40;100.00
51468;BME280;37545;45.302;-122.946;2023-03-14T10:31:52;100802.59;;;5.39;100.00
51468;BME280;37545;45.302;-122.946;2023-03-14T10:34:26;100793.13;;;5.38;100.00
51468;BME280;37545;45.302;-122.946;2023-03-14T10:36:57;100781.81;;;5.35;100.00
51468;BME280;37545;45.302;-122.946;2023-03-14T10:39:44;100781.00;;;5.36;100.00
51468;BME280;37545;45.302;-122.946;2023-03-14T10:42:19;100787.03;;;5.36;100.00
51468;BME280;37545;45.302;-122.946;2023-03-14T10:44:51;100779.97;;;5.32;100.00
51468;BME280;37545;45.302;-122.946;2023-03-14T10:47:24;100786.81;;;5.32;100.00
51468;BME280;37545;45.302;-122.946;2023-03-14T10:49:54;100785.03;;;5.31;100.00
51468;BME280;37545;45.302;-122.946;2023-03-14T10:52:24;100777.31;;;5.31;100.00
51468;BME280;37545;45.302;-122.946;2023-03-14T10:54:58;100782.47;;;5.31;100.00
51468;BME280;37545;45.302;-122.946;2023-03-14T10:57:27;100775.59;;;5.30;100.00
51468;BME280;37545;45.302;-122.946;2023-03-14T10:59:56;100778.94;;;5.29;100.00
51468;BME280;37545;45.302;-122.946;2023-03-14T11:02:48;100783.91;;;5.25;100.00
51468;BME280;37545;45.302;-122.946;2023-03-14T11:05:28;100776.00;;;5.21;100.00
51468;BME280;37545;45.302;-122.946;2023-03-14T11:08:02;100778.31;;;5.16;100.00
51468;BME280;37545;45.302;-122.946;2023-03-14T11:10:35;100778.16;;;5.13;100.00
51468;BME280;37545;45.302;-122.946;2023-03-14T11:13:06;100782.38;;;5.13;100.00
51468;BME280;37545;45.302;-122.946;2023-03-14T11:15:36;100784.00;;;5.11;100.00
51468;BME280;37545;45.302;-122.946;2023-03-14T11:18:26;100780.25;;;5.04;100.00
51468;BME280;37545;45.302;-122.946;2023-03-14T11:21:04;100775.75;;;5.00;100.00
51468;BME280;37545;45.302;-122.946;2023-03-14T11:23:42;100763.72;;;4.99;100.00
51468;BME280;37545;45.302;-122.946;2023-03-14T11:26:27;100756.03;;;4.99;100.00
51468;BME280;37545;45.302;-122.946;2023-03-14T11:29:12;100754.19;;;4.96;100.00
51468;BME280;37545;45.302;-122.946;2023-03-14T11:31:46;100753.81;;;4.89;100.00
51468;BME280;37545;45.302;-122.946;2023-03-14T11:34:17;100749.41;;;4.86;100.00
51468;BME280;37545;45.302;-122.946;2023-03-14T11:36:53;100757.00;;;4.85;100.00
51468;BME280;37545;45.302;-122.946;2023-03-14T11:39:27;100754.19;;;4.80;100.00
51468;BME280;37545;45.302;-122.946;2023-03-14T11:41:59;100751.50;;;4.77;100.00
51468;BME280;37545;45.302;-122.946;2023-03-14T11:44:38;100744.44;;;4.73;100.00
51468;BME280;37545;45.302;-122.946;2023-03-14T11:47:25;100744.97;;;4.67;100.00
51468;BME280;37545;45.302;-122.946;2023-03-14T11:49:59;100738.00;;;4.65;100.00
51468;BME280;37545;45.302;-122.946;2023-03-14T11:52:32;100733.78;;;4.65;100.00
51468;BME280;37545;45.302;-122.946;2023-03-14T11:55:05;100731.03;;;4.62;100.00
51468;BME280;37545;45.302;-122.946;2023-03-14T11:57:40;100733.53;;;4.60;100.00
51468;BME280;37545;45.302;-122.946;2023-03-14T12:00:16;100723.97;;;4.58;100.00
51468;BME280;37545;45.302;-122.946;2023-03-14T12:02:49;100718.81;;;4.56;100.00
51468;BME280;37545;45.302;-122.946;2023-03-14T12:05:36;100715.19;;;4.53;100.00
51468;BME280;37545;45.302;-122.946;2023-03-14T12:08:24;100710.69;;;4.49;100.00
51468;BME280;37545;45.302;-122.946;2023-03-14T12:10:58;100703.56;;;4.43;100.00
51468;BME280;37545;45.302;-122.946;2023-03-14T12:13:33;100709.41;;;4.40;100.00
51468;BME280;37545;45.302;-122.946;2023-03-14T12:16:07;100705.72;;;4.35;100.00
51468;BME280;37545;45.302;-122.946;2023-03-14T12:18:48;100703.72;;;4.30;100.00
51468;BME280;37545;45.302;-122.946;2023-03-14T12:21:16;100694.91;;;4.25;100.00
51468;BME280;37545;45.302;-122.946;2023-03-14T12:23:49;100699.78;;;4.20;100.00
51468;BME280;37545;45.302;-122.946;2023-03-14T12:26:19;100701.28;;;4.16;100.00
51468;BME280;37545;45.302;-122.946;2023-03-14T12:28:52;100697.69;;;4.13;100.00
51468;BME280;37545;45.302;-122.946;2023-03-14T12:31:38;100698.31;;;4.09;100.00
51468;BME280;37545;45.302;-122.946;2023-03-14T12:34:28;100703.19;;;4.04;100.00
51468;BME280;37545;45.302;-122.946;2023-03-14T12:37:06;100697.00;;;4.01;100.00
51468;BME280;37545;45.302;-122.946;2023-03-14T12:39:45;100689.88;;;3.95;100.00
51468;BME280;37545;45.302;-122.946;2023-03-14T12:42:20;100696.50;;;3.91;100.00